createdAt,value
2023-04-26T00:00:19.811Z,63492.19
2023-04-26T00:01:22.897Z,63501.82
2023-04-26T00:02:24.980Z,63495.48
2023-04-26T00:03:47.115Z,63493.29
2023-04-26T00:04:54.504Z,63498.54
2023-04-26T00:05:56.814Z,63486.05
2023-04-26T00:06:59.921Z,63479.16
2023-04-26T00:08:01.789Z,63488.12
2023-04-26T00:09:04.134Z,63479.47
2023-04-26T00:10:08.860Z,63477.16
2023-04-26T00:11:10.876Z,63475.20
2023-04-26T00:12:12.876Z,63484.27
2023-04-26T00:13:14.876Z,63488.12
2023-04-26T00:14:18.036Z,63486.72
2023-04-26T00:15:20.727Z,63489.75
2023-04-26T00:16:22.887Z,63484.40
2023-04-26T00:17:24.901Z,63477.82
2023-04-26T00:18:26.911Z,63477.82
2023-04-26T00:19:28.886Z,63479.77
2023-04-26T00:20:30.953Z,63462.61
2023-04-26T00:21:34.000Z,63466.87
2023-04-26T00:22:35.975Z,63461.38
2023-04-26T00:23:37.954Z,63464.00
2023-04-26T00:24:39.855Z,63466.75
2023-04-26T00:25:41.728Z,63447.82
2023-04-26T00:26:43.836Z,63449.33
2023-04-26T00:27:46.348Z,63451.41
2023-04-26T00:28:49.499Z,63422.92
2023-04-26T00:29:51.461Z,63429.73
2023-04-26T00:30:53.440Z,63439.49
2023-04-26T00:31:57.641Z,63445.93
2023-04-26T00:33:00.561Z,63446.37
2023-04-26T00:34:02.629Z,63438.93
2023-04-26T00:35:06.580Z,63426.21
2023-04-26T00:36:09.558Z,63426.34
2023-04-26T00:37:12.545Z,63442.95
2023-04-26T00:38:14.428Z,63441.98
2023-04-26T00:39:16.290Z,63442.78
2023-04-26T00:40:18.627Z,63443.99
2023-04-26T00:41:20.619Z,63443.43
2023-04-26T00:42:23.729Z,63444.96
2023-04-26T00:43:25.767Z,63441.78
2023-04-26T00:44:28.970Z,63435.64
2023-04-26T00:45:31.011Z,63430.06
2023-04-26T00:46:33.684Z,63426.88
2023-04-26T00:47:35.959Z,63429.09
2023-04-26T00:48:38.544Z,63434.43
2023-04-26T00:49:41.240Z,63427.98
2023-04-26T00:50:44.024Z,63430.06
2023-04-26T00:51:47.177Z,63426.77
2023-04-26T00:52:50.275Z,63431.27
2023-04-26T00:53:53.489Z,63427.01
2023-04-26T00:54:56.681Z,63411.68
2023-04-26T00:56:01.211Z,63406.61
2023-04-26T00:57:03.608Z,63401.66
2023-04-26T00:58:07.034Z,63405.95
2023-04-26T00:59:08.895Z,63388.11
2023-04-26T01:00:11.987Z,63405.81
2023-04-26T01:01:13.874Z,63410.77
2023-04-26T01:02:15.927Z,63403.89
2023-04-26T01:03:18.970Z,63398.40
2023-04-26T01:04:21.348Z,63400.04
2023-04-26T01:05:23.660Z,63406.07
2023-04-26T01:06:32.201Z,63408.02
2023-04-26T01:08:46.727Z,63411.98
2023-04-26T01:09:49.118Z,63411.98
2023-04-26T01:10:52.414Z,63414.16
2023-04-26T01:11:55.364Z,63404.17
2023-04-26T01:12:58.029Z,63398.94
2023-04-26T01:14:01.613Z,63402.79
2023-04-26T01:15:05.028Z,63400.58
2023-04-26T01:16:07.815Z,63401.12
2023-04-26T01:17:09.746Z,63404.97
2023-04-26T01:18:12.053Z,63401.66
2023-04-26T01:19:14.455Z,63398.81
2023-04-26T01:20:16.926Z,63416.11
2023-04-26T01:21:22.664Z,63396.75
2023-04-26T01:22:24.771Z,63398.27
2023-04-26T01:23:26.637Z,63381.29
2023-04-26T01:24:28.527Z,63387.43
2023-04-26T01:25:30.550Z,63377.04
2023-04-26T01:26:32.511Z,63373.64
2023-04-26T01:27:34.668Z,63382.51
2023-04-26T01:28:36.578Z,63384.71
2023-04-26T01:29:38.457Z,63378.68
2023-04-26T01:30:40.408Z,63385.25
2023-04-26T01:31:44.064Z,63386.36
2023-04-26T01:32:46.049Z,63386.09
2023-04-26T01:33:48.290Z,63378.44
2023-04-26T01:34:50.260Z,63391.59
2023-04-26T01:35:52.109Z,63389.51
2023-04-26T01:36:54.069Z,63403.33
2023-04-26T01:37:57.102Z,63404.28
2023-04-26T01:38:58.976Z,63398.81
2023-04-26T01:40:01.131Z,63392.91
2023-04-26T01:41:03.398Z,63379.22
2023-04-26T01:42:05.324Z,63374.29
2023-04-26T01:43:07.346Z,63373.21
2023-04-26T01:44:09.210Z,63363.35
2023-04-26T01:46:23.072Z,63363.79
2023-04-26T01:47:25.101Z,63360.93
2023-04-26T01:48:27.071Z,63355.81
2023-04-26T01:49:29.212Z,63362.14
2023-04-26T01:50:31.181Z,63362.14
2023-04-26T01:51:33.061Z,63360.07
2023-04-26T01:52:35.018Z,63366.64
2023-04-26T01:53:36.898Z,63371.44
2023-04-26T01:54:38.766Z,63367.31
2023-04-26T01:55:40.626Z,63373.21
2023-04-26T01:56:42.586Z,63373.21
2023-04-26T01:57:44.478Z,63382.14
2023-04-26T01:58:46.320Z,63375.39
2023-04-26T01:59:48.200Z,63383.48
2023-04-26T02:00:50.368Z,63377.58
2023-04-26T02:01:52.314Z,63382.40
2023-04-26T02:02:55.330Z,63376.91
2023-04-26T02:03:57.335Z,63381.96
2023-04-26T02:05:00.482Z,63389.38
2023-04-26T02:06:03.442Z,63381.43
2023-04-26T02:07:05.308Z,63391.82
2023-04-26T02:08:07.266Z,63400.34
2023-04-26T02:09:09.122Z,63402.53
2023-04-26T02:10:11.487Z,63397.84
2023-04-26T02:11:13.433Z,63396.86
2023-04-26T02:12:15.320Z,63394.25
2023-04-26T02:13:17.298Z,63406.90
2023-04-26T02:14:19.139Z,63404.97
2023-04-26T02:15:21.021Z,63391.70
2023-04-26T02:16:23.157Z,63404.97
2023-04-26T02:17:26.225Z,63413.92
2023-04-26T02:18:28.576Z,63412.65
2023-04-26T02:19:30.477Z,63414.40
2023-04-26T02:20:33.038Z,63430.90
2023-04-26T02:21:53.457Z,63425.80
2023-04-26T02:22:55.504Z,63432.91
2023-04-26T02:23:57.405Z,63445.27
2023-04-26T02:24:59.261Z,63449.89
2023-04-26T02:26:01.220Z,63453.72
2023-04-26T02:27:03.344Z,63465.77
2023-04-26T02:28:05.586Z,63481.66
2023-04-26T02:29:07.409Z,63491.96
2023-04-26T02:30:10.600Z,63503.58
2023-04-26T02:31:12.978Z,63506.43
2023-04-26T02:32:16.102Z,63513.99
2023-04-26T02:33:17.937Z,63500.29
2023-04-26T02:34:19.842Z,63501.93
2023-04-26T02:35:22.376Z,63497.00
2023-04-26T02:36:26.039Z,63507.97
2023-04-26T02:37:28.177Z,63502.17
2023-04-26T02:38:30.035Z,63511.80
2023-04-26T02:39:32.015Z,63512.11
2023-04-26T02:40:34.092Z,63511.26
2023-04-26T02:41:36.060Z,63508.95
2023-04-26T02:42:38.022Z,63505.77
2023-04-26T02:43:39.891Z,63512.34
2023-04-26T02:44:42.182Z,63506.87
2023-04-26T02:45:44.026Z,63505.77
2023-04-26T02:46:46.009Z,63505.77
2023-04-26T02:47:49.847Z,63505.89
2023-04-26T02:48:52.150Z,63509.72
2023-04-26T02:49:54.200Z,63524.29
2023-04-26T02:50:56.275Z,63519.46
2023-04-26T02:51:58.228Z,63520.57
2023-04-26T02:53:00.146Z,63508.20
2023-04-26T02:54:02.045Z,63508.20
2023-04-26T02:55:05.469Z,63510.70
2023-04-26T02:56:07.690Z,63523.73
2023-04-26T02:57:09.551Z,63523.98
2023-04-26T02:58:11.678Z,63528.79
2023-04-26T02:59:13.572Z,63530.98
2023-04-26T03:00:16.012Z,63523.06
2023-04-26T03:01:18.236Z,63517.28
2023-04-26T03:02:21.372Z,63514.53
2023-04-26T03:03:25.189Z,63526.61
2023-04-26T03:04:27.321Z,63514.12
2023-04-26T03:05:29.212Z,63508.82
2023-04-26T03:06:31.148Z,63508.51
2023-04-26T03:07:33.185Z,63516.30
2023-04-26T03:08:35.051Z,63519.46
2023-04-26T03:09:37.021Z,63513.45
2023-04-26T03:10:39.060Z,63521.11
2023-04-26T03:11:40.892Z,63536.89
2023-04-26T03:12:42.797Z,63537.02
2023-04-26T03:13:44.667Z,63529.46
2023-04-26T03:14:46.523Z,63539.31
2023-04-26T03:15:48.427Z,63537.02
2023-04-26T03:16:50.510Z,63533.73
2023-04-26T03:17:52.480Z,63543.04
2023-04-26T03:18:54.515Z,63547.43
2023-04-26T03:19:56.820Z,63550.05
2023-04-26T03:20:58.761Z,63543.24
2023-04-26T03:22:00.733Z,63532.32
2023-04-26T03:23:02.588Z,63533.60
2023-04-26T03:24:05.517Z,63538.66
2023-04-26T03:25:08.291Z,63538.41
2023-04-26T03:26:11.691Z,63528.66
2023-04-26T03:27:14.486Z,63531.85
2023-04-26T03:28:17.045Z,63520.44
2023-04-26T03:29:18.916Z,63527.69
2023-04-26T03:30:21.732Z,63526.17
2023-04-26T03:31:23.965Z,63525.61
2023-04-26T03:32:26.123Z,63535.25
2023-04-26T03:33:28.106Z,63528.48
2023-04-26T03:34:30.046Z,63543.27
2023-04-26T03:35:32.065Z,63538.90
2023-04-26T03:36:34.150Z,63541.93
2023-04-26T03:37:36.294Z,63541.52
2023-04-26T03:38:38.169Z,63556.08
2023-04-26T03:39:40.584Z,63543.04
2023-04-26T03:40:42.726Z,63554.87
2023-04-26T03:41:44.723Z,63549.18
2023-04-26T03:42:46.668Z,63551.14
2023-04-26T03:43:49.168Z,63557.29
2023-04-26T03:44:51.949Z,63548.77
2023-04-26T03:45:55.022Z,63554.02
2023-04-26T03:46:57.569Z,63557.29
2023-04-26T03:47:59.467Z,63561.68
2023-04-26T03:49:01.558Z,63566.93
2023-04-26T03:50:04.745Z,63554.66
2023-04-26T03:51:06.726Z,63554.02
2023-04-26T03:52:08.609Z,63545.89
2023-04-26T03:53:11.490Z,63547.30
2023-04-26T03:54:13.717Z,63546.33
2023-04-26T03:55:15.953Z,63558.70
2023-04-26T03:56:18.220Z,63562.12
2023-04-26T03:57:20.090Z,63559.91
2023-04-26T03:58:22.169Z,63560.34
2023-04-26T03:59:24.128Z,63561.14
2023-04-26T04:00:26.127Z,63568.80
2023-04-26T04:01:28.084Z,63569.55
2023-04-26T04:02:30.559Z,63570.45
2023-04-26T04:03:33.006Z,63571.55
2023-04-26T04:04:35.335Z,63574.85
2023-04-26T04:05:37.469Z,63583.07
2023-04-26T04:06:39.663Z,63589.10
2023-04-26T04:07:41.855Z,63591.29
2023-04-26T04:08:43.763Z,63591.29
2023-04-26T04:09:45.632Z,63595.68
2023-04-26T04:10:47.692Z,63587.58
2023-04-26T04:11:49.603Z,63585.93
2023-04-26T04:12:51.570Z,63581.43
2023-04-26T04:13:53.464Z,63588.43
2023-04-26T04:14:55.519Z,63590.75
2023-04-26T04:15:57.453Z,63584.60
2023-04-26T04:17:00.507Z,63576.49
2023-04-26T04:18:02.652Z,63576.49
2023-04-26T04:19:04.844Z,63575.93
2023-04-26T04:20:08.160Z,63576.49
2023-04-26T04:21:10.148Z,63579.35
2023-04-26T04:22:12.117Z,63564.43
2023-04-26T04:23:13.983Z,63584.70
2023-04-26T04:24:15.843Z,63570.14
2023-04-26T04:25:18.012Z,63578.55
2023-04-26T04:26:20.312Z,63569.91
2023-04-26T04:27:22.265Z,63577.34
2023-04-26T04:28:26.515Z,63571.55
2023-04-26T04:29:29.003Z,63577.57
2023-04-26T04:30:31.133Z,63589.10
2023-04-26T04:31:33.501Z,63592.16
2023-04-26T04:32:36.032Z,63580.32
2023-04-26T04:33:38.236Z,63585.80
2023-04-26T04:34:40.249Z,63589.10
2023-04-26T04:35:42.109Z,63585.80
2023-04-26T04:36:44.089Z,63582.08
2023-04-26T04:37:46.075Z,63582.08
2023-04-26T04:38:47.923Z,63591.29
2023-04-26T04:39:49.799Z,63584.70
2023-04-26T04:40:51.747Z,63581.43
2023-04-26T04:41:53.599Z,63586.24
2023-04-26T04:42:56.656Z,63588.43
2023-04-26T04:43:58.795Z,63571.79
2023-04-26T04:45:01.588Z,63582.41
2023-04-26T04:46:04.023Z,63587.58
2023-04-26T04:47:06.150Z,63597.77
2023-04-26T04:48:08.469Z,63595.14
2023-04-26T04:49:11.626Z,63595.14
2023-04-26T04:50:14.546Z,63602.04
2023-04-26T04:51:16.479Z,63595.68
2023-04-26T04:52:19.079Z,63597.43
2023-04-26T04:53:21.243Z,63588.66
2023-04-26T04:54:23.131Z,63596.79
2023-04-26T04:55:25.057Z,63606.66
2023-04-26T04:56:27.064Z,63610.52
2023-04-26T04:57:30.487Z,63609.96
2023-04-26T04:58:32.353Z,63617.65
2023-04-26T04:59:34.453Z,63620.38
2023-04-26T05:00:36.503Z,63623.67
2023-04-26T05:01:38.572Z,63629.71
2023-04-26T05:02:41.469Z,63636.97
2023-04-26T05:03:43.795Z,63647.93
2023-04-26T05:04:46.098Z,63646.29
2023-04-26T05:05:48.190Z,63664.15
2023-04-26T05:06:50.247Z,63656.71
2023-04-26T05:07:52.123Z,63653.41
2023-04-26T05:08:55.523Z,63656.71
2023-04-26T05:09:57.504Z,63669.22
2023-04-26T05:10:59.685Z,63673.49
2023-04-26T05:12:01.841Z,63673.60
2023-04-26T05:13:04.091Z,63676.35
2023-04-26T05:14:06.046Z,63673.18
2023-04-26T05:15:08.670Z,63675.37
2023-04-26T05:17:12.679Z,63679.75
2023-04-26T05:18:14.758Z,63676.35
2023-04-26T05:19:16.700Z,63672.20
2023-04-26T05:20:20.870Z,63668.11
2023-04-26T05:21:22.866Z,63674.16
2023-04-26T05:22:26.754Z,63674.16
2023-04-26T05:23:28.752Z,63684.15
2023-04-26T05:24:30.595Z,63675.25
2023-04-26T05:25:36.241Z,63678.66
2023-04-26T05:26:38.646Z,63675.37
2023-04-26T05:27:40.550Z,63673.72
2023-04-26T05:28:42.891Z,63668.34
2023-04-26T05:29:44.853Z,63663.40
2023-04-26T05:30:46.934Z,63664.40
2023-04-26T05:31:51.226Z,63675.37
2023-04-26T05:32:53.335Z,63674.27
2023-04-26T05:33:55.278Z,63678.54
2023-04-26T05:34:57.914Z,63681.83
2023-04-26T05:35:59.899Z,63685.67
2023-04-26T05:37:01.919Z,63690.61
2023-04-26T05:38:03.993Z,63695.24
2023-04-26T05:39:05.965Z,63698.41
2023-04-26T05:40:09.589Z,63707.21
2023-04-26T05:41:11.489Z,63715.43
2023-04-26T05:42:13.533Z,63713.91
2023-04-26T05:43:16.429Z,63717.96
2023-04-26T05:44:18.325Z,63719.29
2023-04-26T05:45:20.710Z,63725.44
2023-04-26T05:46:23.788Z,63734.66
2023-04-26T05:47:25.838Z,63741.23
2023-04-26T05:48:27.912Z,63737.40
2023-04-26T05:49:29.781Z,63749.37
2023-04-26T05:50:32.114Z,63751.57
2023-04-26T05:51:34.110Z,63755.63
2023-04-26T05:52:36.003Z,63768.03
2023-04-26T05:53:37.952Z,63777.40
2023-04-26T05:54:39.824Z,63769.95
2023-04-26T05:55:42.703Z,63775.31
2023-04-26T05:56:44.676Z,63789.61
2023-04-26T05:57:46.864Z,63793.55
2023-04-26T05:58:49.153Z,63796.08
2023-04-26T05:59:51.037Z,63785.64
2023-04-26T06:00:53.060Z,63794.87
2023-04-26T06:01:54.962Z,63800.46
2023-04-26T06:02:57.031Z,63798.50
2023-04-26T06:04:01.022Z,63792.46
2023-04-26T06:05:04.181Z,63797.73
2023-04-26T06:06:06.711Z,63793.32
2023-04-26T06:07:08.684Z,63798.59
2023-04-26T06:08:10.656Z,63800.46
2023-04-26T06:09:13.123Z,63811.46
2023-04-26T06:10:17.715Z,63803.22
2023-04-26T06:11:19.715Z,63804.99
2023-04-26T06:12:21.687Z,63818.82
2023-04-26T06:13:23.777Z,63838.37
2023-04-26T06:14:30.378Z,63845.64
2023-04-26T06:15:29.463Z,63870.26
2023-04-26T06:16:31.465Z,63874.11
2023-04-26T06:17:33.528Z,63882.58
2023-04-26T06:18:35.489Z,63897.31
2023-04-26T06:19:37.575Z,63902.26
2023-04-26T06:20:40.703Z,63906.10
2023-04-26T06:21:42.713Z,63903.91
2023-04-26T06:22:44.708Z,63902.16
2023-04-26T06:23:46.593Z,63880.83
2023-04-26T06:24:48.570Z,63883.88
2023-04-26T06:25:50.547Z,63872.03
2023-04-26T06:26:52.777Z,63889.40
2023-04-26T06:27:54.890Z,63878.61
2023-04-26T06:28:57.431Z,63886.76
2023-04-26T06:29:59.559Z,63874.77
2023-04-26T06:31:01.755Z,63893.34
2023-04-26T06:32:04.456Z,63895.12
2023-04-26T06:33:06.398Z,63902.82
2023-04-26T06:34:08.958Z,63899.08
2023-04-26T06:35:10.850Z,63900.73
2023-04-26T06:36:13.188Z,63895.24
2023-04-26T06:37:16.258Z,63887.53
2023-04-26T06:38:18.258Z,63890.16
2023-04-26T06:39:20.194Z,63892.48
2023-04-26T06:40:22.261Z,63891.27
2023-04-26T06:41:24.227Z,63888.52
2023-04-26T06:42:26.247Z,63889.08
2023-04-26T06:43:28.102Z,63886.20
2023-04-26T06:44:30.274Z,63876.96
2023-04-26T06:45:32.808Z,63873.12
2023-04-26T06:46:34.996Z,63877.97
2023-04-26T06:47:36.984Z,63880.16
2023-04-26T06:48:42.345Z,63885.11
2023-04-26T06:49:44.392Z,63889.62
2023-04-26T06:50:46.430Z,63885.11
2023-04-26T06:51:51.103Z,63886.76
2023-04-26T06:52:53.036Z,63878.07
2023-04-26T06:53:56.613Z,63885.54
2023-04-26T06:55:02.995Z,63874.67
2023-04-26T06:56:05.786Z,63874.67
2023-04-26T06:57:07.857Z,63880.83
2023-04-26T06:58:10.869Z,63872.70
2023-04-26T06:59:12.788Z,63866.10
2023-04-26T07:00:17.982Z,63873.12
2023-04-26T07:01:20.183Z,63878.19
2023-04-26T07:02:22.817Z,63892.26
2023-04-26T07:03:25.085Z,63886.20
2023-04-26T07:04:27.584Z,63880.71
2023-04-26T07:05:29.665Z,63887.85
2023-04-26T07:06:32.097Z,63883.14
2023-04-26T07:07:34.193Z,63903.25
2023-04-26T07:08:36.174Z,63908.74
2023-04-26T07:09:38.037Z,63910.95
2023-04-26T07:10:41.071Z,63923.29
2023-04-26T07:11:47.026Z,63941.33
2023-04-26T07:12:49.706Z,63952.22
2023-04-26T07:13:52.162Z,63949.69
2023-04-26T07:14:54.530Z,63957.28
2023-04-26T07:15:56.560Z,63954.54
2023-04-26T07:16:58.693Z,63945.30
2023-04-26T07:18:00.720Z,63946.73
2023-04-26T07:19:02.717Z,63957.84
2023-04-26T07:20:06.460Z,63965.98
2023-04-26T07:21:09.993Z,63976.97
2023-04-26T07:22:11.902Z,63971.03
2023-04-26T07:23:13.782Z,63941.33
2023-04-26T07:24:15.748Z,63968.17
2023-04-26T07:25:18.146Z,63965.54
2023-04-26T07:26:20.137Z,63983.25
2023-04-26T07:27:22.634Z,64017.16
2023-04-26T07:28:25.769Z,64025.07
2023-04-26T07:29:27.694Z,64046.55
2023-04-26T07:30:30.051Z,64059.22
2023-04-26T07:31:31.911Z,64073.53
2023-04-26T07:32:34.592Z,64068.36
2023-04-26T07:33:36.652Z,64053.58
2023-04-26T07:34:38.647Z,64051.39
2023-04-26T07:35:42.087Z,64041.59
2023-04-26T07:36:44.071Z,64065.71
2023-04-26T07:37:46.063Z,64059.67
2023-04-26T07:38:48.042Z,64080.59
2023-04-26T07:39:49.938Z,64099.41
2023-04-26T07:40:52.010Z,64103.83
2023-04-26T07:41:54.751Z,64141.17
2023-04-26T07:42:56.761Z,64136.33
2023-04-26T07:43:58.727Z,64122.56
2023-04-26T07:45:00.573Z,64137.54
2023-04-26T07:46:02.676Z,64141.29
2023-04-26T07:47:04.685Z,64148.99
2023-04-26T07:48:07.323Z,64165.53
2023-04-26T07:49:09.395Z,64172.69
2023-04-26T07:50:12.025Z,64161.56
2023-04-26T07:51:14.055Z,64141.29
2023-04-26T07:52:15.926Z,64115.94
2023-04-26T07:53:17.872Z,64109.23
2023-04-26T07:54:19.762Z,64090.06
2023-04-26T07:55:22.075Z,64077.16
2023-04-26T07:56:24.102Z,64074.97
2023-04-26T07:57:26.124Z,64058.11
2023-04-26T07:58:28.148Z,64066.38
2023-04-26T07:59:30.006Z,64074.19
2023-04-26T08:00:32.071Z,64092.59
2023-04-26T08:01:34.035Z,64108.13
2023-04-26T08:02:44.487Z,64130.82
2023-04-26T08:03:39.987Z,64132.26
2023-04-26T08:04:48.316Z,64133.57
2023-04-26T08:05:50.661Z,64120.24
2023-04-26T08:06:52.800Z,64134.46
2023-04-26T08:07:54.727Z,64124.75
2023-04-26T08:08:56.576Z,64140.75
2023-04-26T08:09:58.451Z,64142.38
2023-04-26T08:11:00.885Z,64161.11
2023-04-26T08:12:04.271Z,64182.73
2023-04-26T08:13:06.181Z,64174.55
2023-04-26T08:14:08.147Z,64213.95
2023-04-26T08:15:11.292Z,64225.18
2023-04-26T08:16:14.421Z,64235.45
2023-04-26T08:17:17.005Z,64239.86
2023-04-26T08:18:18.879Z,64247.69
2023-04-26T08:19:20.734Z,64264.22
2023-04-26T08:20:22.993Z,64282.43
2023-04-26T08:21:24.998Z,64276.25
2023-04-26T08:22:26.982Z,64247.12
2023-04-26T08:23:30.698Z,64253.08
2023-04-26T08:24:32.700Z,64237.97
2023-04-26T08:25:34.559Z,64257.60
2023-04-26T08:26:36.635Z,64265.33
2023-04-26T08:27:38.636Z,64285.53
2023-04-26T08:28:40.580Z,64289.05
2023-04-26T08:29:42.751Z,64287.82
2023-04-26T08:30:44.774Z,64280.23
2023-04-26T08:31:46.719Z,64281.88
2023-04-26T08:32:48.616Z,64197.52
2023-04-26T08:33:51.159Z,64199.16
2023-04-26T08:34:53.339Z,64164.42
2023-04-26T08:35:55.206Z,64177.54
2023-04-26T08:36:57.417Z,64186.49
2023-04-26T08:37:59.365Z,64186.94
2023-04-26T08:39:01.335Z,64184.74
2023-04-26T08:41:19.153Z,64211.07
2023-04-26T08:42:24.329Z,64193.55
2023-04-26T08:43:27.424Z,64176.54
2023-04-26T08:44:33.091Z,64202.92
2023-04-26T08:45:37.696Z,64202.46
2023-04-26T08:46:58.284Z,64199.93
2023-04-26T08:48:11.056Z,64192.00
2023-04-26T08:49:22.998Z,64206.11
2023-04-26T08:50:25.052Z,64205.11
2023-04-26T08:51:27.828Z,64211.73
2023-04-26T08:52:31.692Z,64204.69
2023-04-26T08:53:35.372Z,64217.80
2023-04-26T08:54:41.591Z,64229.93
2023-04-26T08:55:48.754Z,64226.84
2023-04-26T08:56:53.651Z,64250.34
2023-04-26T08:57:56.072Z,64248.68
2023-04-26T08:59:01.776Z,64248.02
2023-04-26T09:00:05.182Z,64247.12
2023-04-26T09:01:09.193Z,64244.92
2023-04-26T09:02:15.039Z,64221.78
2023-04-26T09:03:17.229Z,64225.09
2023-04-26T09:04:19.473Z,64209.74
2023-04-26T09:05:22.305Z,64220.01
2023-04-26T09:06:24.992Z,64212.73
2023-04-26T09:07:42.374Z,64216.04
2023-04-26T09:08:47.481Z,64208.09
2023-04-26T09:09:50.014Z,64222.32
2023-04-26T09:10:52.039Z,64228.94
2023-04-26T09:11:57.352Z,64242.72
2023-04-26T09:12:59.375Z,64262.36
2023-04-26T09:14:01.362Z,64257.39
2023-04-26T09:15:05.521Z,64262.02
2023-04-26T09:16:08.149Z,64268.09
2023-04-26T09:17:30.964Z,64255.61
2023-04-26T09:18:33.341Z,64270.30
2023-04-26T09:19:37.678Z,64268.73
2023-04-26T09:20:39.852Z,64290.70
2023-04-26T09:21:43.654Z,64292.36
2023-04-26T09:22:45.546Z,64295.67
2023-04-26T09:23:59.800Z,64293.13
2023-04-26T09:25:06.313Z,64300.09
2023-04-26T09:26:16.593Z,64294.02
2023-04-26T09:27:19.891Z,64277.01
2023-04-26T09:28:23.340Z,64266.77
2023-04-26T09:29:25.294Z,64268.73
2023-04-26T09:30:29.932Z,64263.22
2023-04-26T09:31:38.946Z,64263.01
2023-04-26T09:32:49.844Z,64262.02
2023-04-26T09:33:59.302Z,64257.17
2023-04-26T09:35:01.292Z,64257.17
2023-04-26T09:36:12.452Z,64259.82
2023-04-26T09:37:14.543Z,64251.33
2023-04-26T09:38:18.793Z,64239.62
2023-04-26T09:39:39.930Z,64234.99
2023-04-26T09:40:44.777Z,64233.90
2023-04-26T09:41:46.691Z,64212.39
2023-04-26T09:43:04.274Z,64204.12
2023-04-26T09:44:06.161Z,64200.17
2023-04-26T09:45:09.420Z,64195.75
2023-04-26T09:46:15.508Z,64188.69
2023-04-26T09:47:21.264Z,64195.75
2023-04-26T09:48:25.605Z,64183.63
2023-04-26T09:49:30.416Z,64182.73
2023-04-26T09:50:32.451Z,64165.53
2023-04-26T09:51:34.396Z,64159.58
2023-04-26T09:52:43.407Z,64155.51
2023-04-26T09:53:47.083Z,64145.47
2023-04-26T09:54:53.684Z,64138.43
2023-04-26T09:55:57.175Z,64140.63
2023-04-26T09:56:59.846Z,64129.62
2023-04-26T09:58:10.177Z,64133.57
2023-04-26T09:59:12.215Z,64128.06
2023-04-26T10:00:15.596Z,64128.96
2023-04-26T10:01:19.080Z,64119.04
2023-04-26T10:02:23.556Z,64119.04
2023-04-26T10:03:26.556Z,64112.64
2023-04-26T10:04:31.218Z,64112.64
2023-04-26T10:05:34.159Z,64105.60
2023-04-26T10:06:36.291Z,64104.82
2023-04-26T10:07:39.012Z,64111.88
2023-04-26T10:08:41.240Z,64109.33
2023-04-26T10:09:44.029Z,64120.24
2023-04-26T10:10:47.249Z,64115.94
2023-04-26T10:11:49.141Z,64132.26
2023-04-26T10:12:51.101Z,64135.79
2023-04-26T10:13:53.160Z,64130.82
2023-04-26T10:14:56.030Z,64143.93
2023-04-26T10:15:59.674Z,64155.06
2023-04-26T10:17:04.637Z,64167.52
2023-04-26T10:18:08.246Z,64167.07
2023-04-26T10:19:11.515Z,64151.87
2023-04-26T10:20:17.090Z,64160.57
2023-04-26T10:22:54.991Z,64172.69
2023-04-26T10:23:59.382Z,64171.70
2023-04-26T10:25:01.966Z,64172.57
2023-04-26T10:26:04.670Z,64164.87
2023-04-26T10:27:06.652Z,64156.15
2023-04-26T10:28:08.539Z,64161.56
2023-04-26T10:29:10.522Z,64158.91
2023-04-26T10:30:15.347Z,64180.84
2023-04-26T10:31:17.315Z,64185.83
2023-04-26T10:32:21.265Z,64189.35
2023-04-26T10:33:24.760Z,64192.11
2023-04-26T10:34:28.668Z,64210.74
2023-04-26T10:35:30.571Z,64228.94
2023-04-26T10:36:32.631Z,64238.30
2023-04-26T10:37:34.644Z,64248.23
2023-04-26T10:38:38.632Z,64238.96
2023-04-26T10:39:42.530Z,64238.21
2023-04-26T10:40:44.673Z,64234.90
2023-04-26T10:41:46.732Z,64235.45
2023-04-26T10:42:48.677Z,64220.12
2023-04-26T10:43:50.680Z,64227.29
2023-04-26T10:44:58.705Z,64226.95
2023-04-26T10:46:17.316Z,64232.13
2023-04-26T10:48:41.108Z,64235.56
2023-04-26T10:49:46.478Z,64226.18
2023-04-26T10:51:04.561Z,64227.07
2023-04-26T10:52:12.577Z,64231.25
2023-04-26T10:53:14.751Z,64243.15
2023-04-26T10:54:16.888Z,64254.85
2023-04-26T10:55:39.634Z,64256.51
2023-04-26T10:56:48.532Z,64248.23
2023-04-26T10:57:52.226Z,64275.60
2023-04-26T11:00:23.538Z,64260.36
2023-04-26T11:01:25.569Z,64263.01
2023-04-26T11:03:00.335Z,64269.84
2023-04-26T11:04:10.456Z,64247.57
2023-04-26T11:05:40.877Z,64253.20
2023-04-26T11:06:53.839Z,64244.26
2023-04-26T11:08:20.332Z,64245.92
2023-04-26T11:09:38.714Z,64237.10
2023-04-26T11:10:41.984Z,64237.10
2023-04-26T11:11:53.120Z,64232.79
2023-04-26T11:13:02.386Z,64230.59
2023-04-26T11:14:05.622Z,64216.91
2023-04-26T11:15:10.352Z,64222.98
2023-04-26T11:16:15.074Z,64230.48
2023-04-26T11:17:17.883Z,64220.45
2023-04-26T11:18:20.845Z,64215.70
2023-04-26T11:19:22.803Z,64213.39
2023-04-26T11:20:29.501Z,64211.64
2023-04-26T11:21:31.414Z,64214.71
2023-04-26T11:22:33.354Z,64213.50
2023-04-26T11:23:36.018Z,64205.23
2023-04-26T11:24:38.318Z,64209.20
2023-04-26T11:25:40.183Z,64167.07
2023-04-26T11:26:46.175Z,64176.99
2023-04-26T11:27:48.087Z,64208.43
2023-04-26T11:28:50.499Z,64235.45
2023-04-26T11:29:54.095Z,64235.45
2023-04-26T11:30:56.749Z,64233.90
2023-04-26T11:31:58.874Z,64237.21
2023-04-26T11:33:02.717Z,64244.26
2023-04-26T11:34:04.948Z,64239.86
2023-04-26T11:35:08.178Z,64244.38
2023-04-26T11:36:11.456Z,64244.38
2023-04-26T11:37:16.504Z,64232.68
2023-04-26T11:38:25.257Z,64239.20
2023-04-26T11:39:28.067Z,64239.20
2023-04-26T11:40:31.275Z,64219.01
2023-04-26T11:41:33.338Z,64213.60
2023-04-26T11:42:35.295Z,64206.89
2023-04-26T11:43:38.669Z,64183.18
2023-04-26T11:44:40.883Z,64193.44
2023-04-26T11:45:42.875Z,64190.67
2023-04-26T11:46:49.125Z,64180.44
2023-04-26T11:47:51.864Z,64176.54
2023-04-26T11:48:54.901Z,64182.09
2023-04-26T11:49:57.650Z,64183.75
2023-04-26T11:51:02.211Z,64181.41
2023-04-26T11:52:05.872Z,64178.76
2023-04-26T11:53:08.162Z,64165.98
2023-04-26T11:54:10.405Z,64146.25
2023-04-26T11:55:12.382Z,64160.57
2023-04-26T11:56:16.932Z,64160.45
2023-04-26T11:57:19.711Z,64162.01
2023-04-26T11:58:21.708Z,64151.42
2023-04-26T11:59:26.346Z,64100.52
2023-04-26T12:00:28.753Z,64119.70
2023-04-26T12:01:30.633Z,64118.37
2023-04-26T12:02:35.113Z,64098.98
2023-04-26T12:03:37.222Z,64102.06
2023-04-26T12:04:40.394Z,64090.60
2023-04-26T12:05:42.670Z,64101.51
2023-04-26T12:06:46.307Z,64094.47
2023-04-26T12:07:57.111Z,64103.61
2023-04-26T12:09:01.810Z,64105.81
2023-04-26T12:10:18.166Z,64101.63
2023-04-26T12:11:20.191Z,64119.70
2023-04-26T12:12:23.188Z,64112.42
2023-04-26T12:13:25.373Z,64127.96
2023-04-26T12:15:42.561Z,64134.23
2023-04-26T12:16:47.206Z,64110.89
2023-04-26T12:18:02.198Z,64125.20
2023-04-26T12:19:05.818Z,64113.09
2023-04-26T12:20:09.726Z,64098.77
2023-04-26T12:21:11.603Z,64093.25
2023-04-26T12:22:17.200Z,64088.73
2023-04-26T12:23:20.290Z,64107.13
2023-04-26T12:24:25.806Z,64084.55
2023-04-26T12:25:29.117Z,64100.07
2023-04-26T12:26:43.781Z,64078.94
2023-04-26T12:27:45.665Z,64080.04
2023-04-26T12:28:47.517Z,64080.71
2023-04-26T12:29:50.344Z,64069.14
2023-04-26T12:30:52.673Z,64073.98
2023-04-26T12:31:54.626Z,64075.18
2023-04-26T12:33:09.209Z,64079.27